createdAt,value
2022-08-12T00:00:36.534Z,92.30
2022-08-12T00:03:23.088Z,92.20
2022-08-12T00:06:10.284Z,92.50
2022-08-12T00:08:57.499Z,92.40
2022-08-12T00:11:46.068Z,92.40
2022-08-12T00:14:32.556Z,92.50
2022-08-12T00:17:18.843Z,92.60
2022-08-12T00:20:04.777Z,92.50
2022-08-12T00:22:59.426Z,92.60
2022-08-12T00:26:23.823Z,92.60
2022-08-12T00:29:12.949Z,92.60
2022-08-12T00:32:00.328Z,92.60
2022-08-12T00:34:49.208Z,92.70
2022-08-12T00:37:36.967Z,92.80
2022-08-12T00:40:29.301Z,92.70
2022-08-12T00:42:58.129Z,92.70
2022-08-12T00:45:25.997Z,92.60
2022-08-12T00:47:54.034Z,92.70
2022-08-12T00:50:22.928Z,92.90
2022-08-12T00:52:52.644Z,92.80
2022-08-12T00:55:21.210Z,92.80
2022-08-12T00:57:50.921Z,93.00
2022-08-12T01:00:21.875Z,93.00
2022-08-12T01:02:52.567Z,92.90
2022-08-12T01:05:43.250Z,93.30
2022-08-12T01:08:29.632Z,93.10
2022-08-12T01:11:16.217Z,93.10
2022-08-12T01:13:48.699Z,93.10
2022-08-12T01:16:19.277Z,93.30
2022-08-12T01:18:47.845Z,93.10
2022-08-12T01:21:55.553Z,93.30
2022-08-12T01:25:04.207Z,93.40
2022-08-12T01:27:35.182Z,93.30
2022-08-12T01:30:06.620Z,93.50
2022-08-12T01:32:38.114Z,93.60
2022-08-12T01:35:10.575Z,93.70
2022-08-12T01:37:53.014Z,93.70
2022-08-12T01:40:35.559Z,93.80
2022-08-12T01:43:13.457Z,94.20
2022-08-12T01:45:57.646Z,94.00
2022-08-12T01:49:01.824Z,94.00
2022-08-12T01:52:15.601Z,94.00
2022-08-12T01:54:29.718Z,94.10
2022-08-12T01:57:59.237Z,94.20
2022-08-12T02:00:19.813Z,94.40
2022-08-12T02:03:27.881Z,94.50
2022-08-12T02:06:38.377Z,94.60
2022-08-12T02:09:29.826Z,94.70
2022-08-12T02:12:27.619Z,94.80
2022-08-12T02:15:17.924Z,95.00
2022-08-12T02:17:56.306Z,95.20
2022-08-12T02:20:52.005Z,95.20
2022-08-12T02:23:28.078Z,95.30
2022-08-12T02:26:01.217Z,95.30
2022-08-12T02:28:29.470Z,95.40
2022-08-12T02:31:02.332Z,95.50
2022-08-12T02:33:30.998Z,95.50
2022-08-12T02:36:01.966Z,95.70
2022-08-12T02:38:31.163Z,95.80
2022-08-12T02:41:02.599Z,95.90
2022-08-12T02:43:51.397Z,96.10
2022-08-12T02:46:25.940Z,96.20
2022-08-12T02:49:24.120Z,96.40
2022-08-12T02:51:51.957Z,96.50
2022-08-12T02:54:22.172Z,96.70
2022-08-12T02:56:50.485Z,96.40
2022-08-12T02:59:23.775Z,96.60
2022-08-12T03:01:56.648Z,96.60
2022-08-12T03:04:31.037Z,96.80
2022-08-12T03:07:21.589Z,96.90
2022-08-12T03:10:04.672Z,97.00
2022-08-12T03:12:49.827Z,97.10
2022-08-12T03:15:22.185Z,97.20
2022-08-12T03:18:25.850Z,97.40
2022-08-12T03:20:46.980Z,97.60
2022-08-12T03:23:21.554Z,97.60
2022-08-12T03:26:02.408Z,97.80
2022-08-12T03:28:53.996Z,97.70
2022-08-12T03:31:24.289Z,97.80
2022-08-12T03:34:01.882Z,98.10
2022-08-12T03:36:36.066Z,98.20
2022-08-12T03:39:17.618Z,98.30
2022-08-12T03:42:00.224Z,98.30
2022-08-12T03:44:50.831Z,98.70
2022-08-12T03:48:02.522Z,98.80
2022-08-12T03:50:49.262Z,98.80
2022-08-12T03:53:43.526Z,98.90
2022-08-12T03:56:29.522Z,98.90
2022-08-12T03:59:17.711Z,99.10
2022-08-12T04:01:52.553Z,99.20
2022-08-12T04:04:23.455Z,99.40
2022-08-12T04:06:51.517Z,99.40
2022-08-12T04:09:21.314Z,99.70
2022-08-12T04:12:08.999Z,99.80
2022-08-12T04:14:37.769Z,99.80
2022-08-12T04:17:05.304Z,99.90
2022-08-12T04:19:32.866Z,99.90
2022-08-12T04:22:03.495Z,99.90
2022-08-12T04:24:36.025Z,99.90
2022-08-12T04:27:09.265Z,99.90
2022-08-12T04:30:32.969Z,99.90
2022-08-12T04:32:26.491Z,99.90
2022-08-12T04:34:54.635Z,99.90
2022-08-12T04:37:23.218Z,99.90
2022-08-12T04:39:52.498Z,99.90
2022-08-12T04:42:20.954Z,99.90
2022-08-12T04:44:48.644Z,99.90
2022-08-12T04:47:17.090Z,99.90
2022-08-12T04:49:46.061Z,99.90
2022-08-12T04:52:14.504Z,99.90
2022-08-12T04:54:43.931Z,99.90
2022-08-12T04:57:11.586Z,99.90
2022-08-12T04:59:48.132Z,99.90
2022-08-12T05:02:22.191Z,99.90
2022-08-12T05:04:52.330Z,99.90
2022-08-12T05:07:20.744Z,99.90
2022-08-12T05:10:00.569Z,99.90
2022-08-12T05:12:41.445Z,99.90
2022-08-12T05:15:27.902Z,99.90
2022-08-12T05:18:00.019Z,99.90
2022-08-12T05:20:29.843Z,99.90
2022-08-12T05:23:13.976Z,99.90
2022-08-12T05:25:43.268Z,99.90
2022-08-12T05:28:13.083Z,99.90
2022-08-12T05:30:43.618Z,99.90
2022-08-12T05:33:12.691Z,99.90
2022-08-12T05:35:43.219Z,99.90
2022-08-12T05:38:31.649Z,99.90
2022-08-12T05:41:00.280Z,99.90
2022-08-12T05:43:28.829Z,99.90
2022-08-12T05:45:56.785Z,99.90
2022-08-12T05:48:24.546Z,99.90
2022-08-12T05:50:53.180Z,99.90
2022-08-12T05:53:20.713Z,99.90
2022-08-12T05:55:48.132Z,99.90
2022-08-12T05:58:15.520Z,99.90
2022-08-12T06:00:43.018Z,99.90
2022-08-12T06:03:11.152Z,99.90
2022-08-12T06:05:43.038Z,99.90
2022-08-12T06:08:22.161Z,99.90
2022-08-12T06:10:50.291Z,99.90
2022-08-12T06:13:27.994Z,99.90
2022-08-12T06:16:07.422Z,99.90
2022-08-12T06:18:35.062Z,99.90
2022-08-12T06:21:02.677Z,99.90
2022-08-12T06:23:30.561Z,99.90
2022-08-12T06:25:59.159Z,99.90
2022-08-12T06:28:28.093Z,99.90
2022-08-12T06:31:22.575Z,99.90
2022-08-12T06:33:55.747Z,99.90
2022-08-12T06:36:29.876Z,99.90
2022-08-12T06:39:01.419Z,99.90
2022-08-12T06:42:04.941Z,99.90
2022-08-12T06:44:45.418Z,99.90
2022-08-12T06:47:16.583Z,99.90
2022-08-12T06:49:44.561Z,99.90
2022-08-12T06:52:11.996Z,99.90
2022-08-12T06:54:41.143Z,99.90
2022-08-12T06:58:06.298Z,99.90
2022-08-12T06:59:56.279Z,99.90
2022-08-12T07:02:25.856Z,99.90
2022-08-12T07:04:53.244Z,99.90
2022-08-12T07:07:21.344Z,99.90
2022-08-12T07:10:05.528Z,99.90
2022-08-12T07:12:36.938Z,99.90
2022-08-12T07:15:04.907Z,99.90
2022-08-12T07:17:37.427Z,99.90
2022-08-12T07:20:35.706Z,99.90
2022-08-12T07:23:02.186Z,99.90
2022-08-12T07:25:37.937Z,99.90
2022-08-12T07:28:19.011Z,99.90
2022-08-12T07:30:49.253Z,99.90
2022-08-12T07:33:18.551Z,99.90
2022-08-12T07:35:47.785Z,99.90
2022-08-12T07:38:29.778Z,99.90
2022-08-12T07:41:06.185Z,99.90
2022-08-12T07:43:36.694Z,99.90
2022-08-12T07:46:09.280Z,99.90
2022-08-12T07:48:46.311Z,99.90
2022-08-12T07:51:25.037Z,99.90
2022-08-12T07:54:00.176Z,99.90
2022-08-12T07:56:29.005Z,99.90
2022-08-12T07:58:59.051Z,99.90
2022-08-12T08:01:27.145Z,99.90
2022-08-12T08:04:18.423Z,99.90
2022-08-12T08:06:47.173Z,99.90
2022-08-12T08:09:17.359Z,99.90
2022-08-12T08:12:03.739Z,99.90
2022-08-12T08:14:32.688Z,99.90
2022-08-12T08:17:03.450Z,99.90
2022-08-12T08:19:33.715Z,99.90
2022-08-12T08:22:32.058Z,99.90
2022-08-12T08:25:34.241Z,99.90
2022-08-12T08:27:57.985Z,99.90
2022-08-12T08:30:25.945Z,99.90
2022-08-12T08:32:53.518Z,99.90
2022-08-12T08:35:26.015Z,99.90
2022-08-12T08:38:13.822Z,99.90
2022-08-12T08:41:04.832Z,99.90
2022-08-12T08:43:44.231Z,99.90
2022-08-12T08:46:14.447Z,99.90
2022-08-12T08:48:41.829Z,99.90
2022-08-12T08:51:09.277Z,99.90
2022-08-12T08:53:41.419Z,99.90
2022-08-12T08:56:11.679Z,99.90
2022-08-12T08:58:40.754Z,99.90
2022-08-12T09:01:08.288Z,99.90
2022-08-12T09:05:08.851Z,99.90
2022-08-12T09:06:37.327Z,99.90
2022-08-12T09:09:13.448Z,99.90
2022-08-12T09:14:51.189Z,99.50
2022-08-12T09:17:22.477Z,99.40
2022-08-12T09:22:37.788Z,99.20
2022-08-12T09:25:07.111Z,98.80
2022-08-12T09:28:03.863Z,98.40
2022-08-12T09:30:41.220Z,98.20
2022-08-12T09:33:15.234Z,98.10
2022-08-12T09:36:04.154Z,97.70
2022-08-12T09:38:35.217Z,97.70
2022-08-12T09:42:35.204Z,97.00
2022-08-12T09:44:37.943Z,96.80
2022-08-12T09:46:57.991Z,96.20
2022-08-12T09:49:25.437Z,96.00
2022-08-12T09:51:55.358Z,96.00
2022-08-12T09:54:31.497Z,96.00
2022-08-12T09:58:45.729Z,95.70
2022-08-12T10:00:13.134Z,95.50
2022-08-12T10:03:32.351Z,95.40
2022-08-12T10:06:27.238Z,95.10
2022-08-12T10:08:52.461Z,94.90
2022-08-12T10:12:09.678Z,93.80
2022-08-12T10:14:34.231Z,93.90
2022-08-12T10:17:02.617Z,93.70
2022-08-12T10:19:36.600Z,93.60
2022-08-12T10:22:16.460Z,93.40
2022-08-12T10:25:18.026Z,93.30
2022-08-12T10:28:08.399Z,93.10
2022-08-12T10:30:46.828Z,93.20
2022-08-12T10:33:31.760Z,92.90
2022-08-12T10:36:01.982Z,92.30
2022-08-12T10:38:38.306Z,92.10
2022-08-12T10:41:58.164Z,91.70
2022-08-12T10:44:17.303Z,91.20
2022-08-12T10:46:49.152Z,90.30
2022-08-12T10:50:04.999Z,90.00
2022-08-12T10:52:33.988Z,87.70
2022-08-12T10:54:56.086Z,86.50
2022-08-12T10:58:13.689Z,86.90
2022-08-12T11:00:32.078Z,86.00
2022-08-12T11:04:34.344Z,84.70
2022-08-12T11:07:05.632Z,81.60
2022-08-12T11:08:43.180Z,81.80
2022-08-12T11:12:35.095Z,81.30
2022-08-12T11:14:06.009Z,82.00
2022-08-12T11:16:40.462Z,80.70
2022-08-12T11:19:29.280Z,81.60
2022-08-12T11:22:03.294Z,80.50
2022-08-12T11:24:32.278Z,78.90
2022-08-12T11:27:07.942Z,78.90
2022-08-12T11:30:02.376Z,79.40
2022-08-12T11:32:26.483Z,78.20
2022-08-12T11:34:54.826Z,77.10
2022-08-12T11:37:26.395Z,78.50
2022-08-12T11:42:37.233Z,78.20
2022-08-12T11:45:06.017Z,78.50
2022-08-12T11:47:40.469Z,78.30
2022-08-12T11:50:08.454Z,78.60
2022-08-12T11:52:55.032Z,77.50
2022-08-12T11:55:27.574Z,76.70
2022-08-12T11:58:03.957Z,76.40
2022-08-12T12:03:43.727Z,77.60
2022-08-12T12:06:20.820Z,77.40
2022-08-12T12:08:53.789Z,77.50
2022-08-12T12:11:22.794Z,76.80
2022-08-12T12:14:07.521Z,77.00
2022-08-12T12:16:39.936Z,76.60
2022-08-12T12:19:10.142Z,76.50
2022-08-12T12:21:47.258Z,75.80
2022-08-12T12:24:21.487Z,75.70
2022-08-12T12:27:00.331Z,75.20
2022-08-12T12:30:17.819Z,74.60
2022-08-12T12:32:17.224Z,75.10
2022-08-12T12:35:14.183Z,74.50
2022-08-12T12:38:04.554Z,74.00
2022-08-12T12:40:22.703Z,73.10
2022-08-12T12:43:01.722Z,72.50
2022-08-12T12:45:34.111Z,71.80
2022-08-12T12:48:10.428Z,71.40
2022-08-12T12:50:42.519Z,71.60
2022-08-12T12:54:06.708Z,70.90
2022-08-12T12:56:09.247Z,70.30
2022-08-12T12:58:37.240Z,71.30
2022-08-12T13:01:27.867Z,69.40
2022-08-12T13:03:56.368Z,69.80
2022-08-12T13:06:30.832Z,70.80
2022-08-12T13:09:03.188Z,68.60
2022-08-12T13:11:39.131Z,69.50
2022-08-12T13:14:29.248Z,69.10
2022-08-12T13:17:02.754Z,68.30
2022-08-12T13:19:38.704Z,68.00
2022-08-12T13:22:19.051Z,66.80
2022-08-12T13:24:52.137Z,67.70
2022-08-12T13:27:34.522Z,67.00
2022-08-12T13:30:10.767Z,67.00
2022-08-12T13:32:57.340Z,68.20
2022-08-12T13:36:06.180Z,67.60
2022-08-12T13:38:34.537Z,66.70
2022-08-12T13:41:04.027Z,67.20
2022-08-12T13:43:40.450Z,66.30
2022-08-12T13:46:12.311Z,64.90
2022-08-12T13:48:45.152Z,64.90
2022-08-12T13:51:14.203Z,65.10
2022-08-12T13:53:58.275Z,64.50
2022-08-12T13:56:34.678Z,64.70
2022-08-12T13:59:08.733Z,64.80
2022-08-12T14:01:40.698Z,63.90
2022-08-12T14:04:11.428Z,64.40
2022-08-12T14:06:40.451Z,64.20
2022-08-12T14:09:18.035Z,63.90
2022-08-12T14:11:59.119Z,63.90
2022-08-12T14:14:31.663Z,64.10
2022-08-12T14:17:09.908Z,62.70
2022-08-12T14:19:48.536Z,64.00
2022-08-12T14:22:20.279Z,64.00
2022-08-12T14:24:47.733Z,62.70
2022-08-12T14:27:38.168Z,62.90
2022-08-12T14:30:15.461Z,62.60
2022-08-12T14:32:45.311Z,62.40
2022-08-12T14:35:13.384Z,62.10
2022-08-12T14:37:58.197Z,61.90
2022-08-12T14:40:30.365Z,61.90
2022-08-12T14:42:59.145Z,62.60
2022-08-12T14:45:37.096Z,62.10
2022-08-12T14:48:18.966Z,62.50
2022-08-12T14:51:03.069Z,63.40
2022-08-12T14:59:57.447Z,62.30
2022-08-12T15:02:21.017Z,62.70
2022-08-12T15:05:03.846Z,63.10
2022-08-12T15:07:34.221Z,64.80
2022-08-12T15:10:31.742Z,65.60
2022-08-12T15:13:07.128Z,66.70
2022-08-12T15:15:43.660Z,66.70
2022-08-12T15:18:21.085Z,66.10
2022-08-12T15:20:51.299Z,65.30
2022-08-12T15:23:21.736Z,65.50
2022-08-12T15:25:59.848Z,66.50
2022-08-12T15:28:33.286Z,65.70
2022-08-12T15:31:02.208Z,66.20
2022-08-12T15:33:44.717Z,66.20
2022-08-12T15:36:14.304Z,66.30
2022-08-12T15:38:46.841Z,66.80
2022-08-12T15:41:14.668Z,67.10
2022-08-12T15:44:17.026Z,66.70
2022-08-12T15:46:32.202Z,66.30
2022-08-12T15:49:00.337Z,66.00
2022-08-12T15:51:57.646Z,65.60
2022-08-12T15:54:30.896Z,66.00
2022-08-12T15:57:05.650Z,66.00
2022-08-12T16:00:00.018Z,66.40
2022-08-12T16:02:21.282Z,65.70
2022-08-12T16:04:51.541Z,65.70
2022-08-12T16:07:30.151Z,64.50
2022-08-12T16:10:07.221Z,65.90
2022-08-12T16:12:55.164Z,65.80
2022-08-12T16:15:26.370Z,66.30
2022-08-12T16:18:18.261Z,65.70
2022-08-12T16:20:46.746Z,65.30
2022-08-12T16:23:26.368Z,65.90
2022-08-12T16:26:14.573Z,66.00
2022-08-12T16:28:47.484Z,66.00
2022-08-12T16:31:23.348Z,66.00
2022-08-12T16:33:58.954Z,66.00
2022-08-12T16:36:31.341Z,65.40
2022-08-12T16:39:01.800Z,65.60
2022-08-12T16:41:37.921Z,65.70
2022-08-12T16:44:09.026Z,66.00
2022-08-12T16:46:37.887Z,66.10
2022-08-12T16:49:08.976Z,67.10
2022-08-12T16:51:46.555Z,66.70
2022-08-12T16:54:21.893Z,66.70
2022-08-12T16:56:57.829Z,66.30
2022-08-12T16:59:53.575Z,66.40
2022-08-12T17:02:31.616Z,66.90
2022-08-12T17:05:05.217Z,66.90
2022-08-12T17:07:43.296Z,67.10
2022-08-12T17:10:14.147Z,66.60
2022-08-12T17:12:46.136Z,68.00
2022-08-12T17:15:21.702Z,67.50
2022-08-12T17:18:39.308Z,67.50
2022-08-12T17:20:51.663Z,67.40
2022-08-12T17:23:21.359Z,67.00
2022-08-12T17:25:52.249Z,67.80
2022-08-12T17:28:24.253Z,67.90
2022-08-12T17:30:57.421Z,68.40
2022-08-12T17:33:33.320Z,68.00
2022-08-12T17:36:03.057Z,67.10
2022-08-12T17:38:30.771Z,67.20
2022-08-12T17:40:58.546Z,67.00
2022-08-12T17:43:56.007Z,67.40
2022-08-12T17:46:23.939Z,67.50
2022-08-12T17:48:59.793Z,67.10
2022-08-12T17:51:31.294Z,67.10
2022-08-12T17:54:10.387Z,67.60
2022-08-12T17:56:43.258Z,67.80
2022-08-12T17:59:12.733Z,67.50
2022-08-12T18:01:45.642Z,67.40
2022-08-12T18:04:21.495Z,67.30
2022-08-12T18:06:52.358Z,67.60
2022-08-12T18:09:24.672Z,67.60
2022-08-12T18:12:12.723Z,67.90
2022-08-12T18:14:41.396Z,68.10
2022-08-12T18:17:16.264Z,68.10
2022-08-12T18:20:07.075Z,68.20
2022-08-12T18:22:32.798Z,68.20
2022-08-12T18:25:04.142Z,68.80
2022-08-12T18:27:43.541Z,69.00
2022-08-12T18:30:16.347Z,68.80
2022-08-12T18:32:59.041Z,68.30
2022-08-12T18:35:46.976Z,68.50
2022-08-12T18:38:22.042Z,68.80
2022-08-12T18:41:10.104Z,68.40
2022-08-12T18:43:58.588Z,69.20
2022-08-12T18:46:53.748Z,69.40
2022-08-12T18:49:33.446Z,69.50
2022-08-12T18:52:07.955Z,69.50
2022-08-12T18:54:49.405Z,69.40
2022-08-12T18:58:06.546Z,69.10
2022-08-12T19:00:21.543Z,69.50
2022-08-12T19:02:55.778Z,69.00
2022-08-12T19:05:52.888Z,69.50
2022-08-12T19:08:14.037Z,69.60
2022-08-12T19:10:42.958Z,69.80
2022-08-12T19:13:53.203Z,69.80
2022-08-12T19:16:21.676Z,70.10
2022-08-12T19:18:52.614Z,70.20
2022-08-12T19:21:20.424Z,70.50
2022-08-12T19:24:08.925Z,70.30
2022-08-12T19:26:37.099Z,70.60
2022-08-12T19:29:07.350Z,71.00
2022-08-12T19:31:57.491Z,71.30
2022-08-12T19:38:03.450Z,71.90
2022-08-12T19:40:20.534Z,72.50
2022-08-12T19:43:18.922Z,72.70
2022-08-12T19:45:51.323Z,72.90
2022-08-12T19:48:20.134Z,73.10
2022-08-12T19:50:52.411Z,73.40
2022-08-12T19:53:23.392Z,73.50
2022-08-12T19:55:53.258Z,73.50
2022-08-12T19:58:35.417Z,74.00
2022-08-12T20:01:12.525Z,74.10
2022-08-12T20:03:47.939Z,74.60
2022-08-12T20:06:28.431Z,74.70
2022-08-12T20:08:57.726Z,74.00
2022-08-12T20:12:15.042Z,73.60
2022-08-12T20:14:19.163Z,74.10
2022-08-12T20:17:01.621Z,74.60
2022-08-12T20:20:00.989Z,74.30
2022-08-12T20:22:29.489Z,74.60
2022-08-12T20:25:01.481Z,74.80
2022-08-12T20:28:02.975Z,74.70
2022-08-12T20:30:52.171Z,75.00
2022-08-12T20:33:17.743Z,75.40
2022-08-12T20:36:14.130Z,75.30
2022-08-12T20:38:40.039Z,75.20
2022-08-12T20:41:17.858Z,75.30
2022-08-12T20:43:57.231Z,75.60
2022-08-12T20:46:33.889Z,74.60
2022-08-12T20:49:14.886Z,75.00
2022-08-12T20:51:55.842Z,74.80
2022-08-12T20:54:32.871Z,74.80
2022-08-12T20:57:07.445Z,74.60
2022-08-12T20:59:47.950Z,74.60
2022-08-12T21:02:16.297Z,74.70
2022-08-12T21:05:16.232Z,75.10
2022-08-12T21:07:51.802Z,75.30
2022-08-12T21:10:21.225Z,75.60
2022-08-12T21:12:50.867Z,75.40
2022-08-12T21:15:30.376Z,75.30
2022-08-12T21:18:11.199Z,75.70
2022-08-12T21:20:55.433Z,75.90
2022-08-12T21:23:23.374Z,76.30
2022-08-12T21:26:01.151Z,76.30
2022-08-12T21:28:31.012Z,76.40
2022-08-12T21:32:35.237Z,76.70
2022-08-12T21:34:08.066Z,76.70
2022-08-12T21:36:40.042Z,77.00
2022-08-12T21:39:19.142Z,77.00
2022-08-12T21:41:54.176Z,90.20
2022-08-12T21:45:44.467Z,78.50
2022-08-12T21:47:21.316Z,77.70
2022-08-12T21:50:02.186Z,79.20
2022-08-12T21:52:34.966Z,79.00
2022-08-12T21:55:08.372Z,79.90
2022-08-12T21:57:53.718Z,79.70
2022-08-12T22:00:31.890Z,80.20
2022-08-12T22:04:01.599Z,80.90
2022-08-12T22:06:19.979Z,80.80
2022-08-12T22:08:57.747Z,81.30
2022-08-12T22:11:41.092Z,81.70
2022-08-12T22:14:21.702Z,82.50
2022-08-12T22:16:53.799Z,81.90
2022-08-12T22:19:22.814Z,82.10
2022-08-12T22:21:55.654Z,81.90
2022-08-12T22:24:26.829Z,82.00
2022-08-12T22:27:08.158Z,82.20
2022-08-12T22:30:09.319Z,82.10
2022-08-12T22:32:51.255Z,82.40
2022-08-12T22:35:55.846Z,82.80
2022-08-12T22:38:25.043Z,82.50
2022-08-12T22:41:32.328Z,83.00
2022-08-12T22:44:20.377Z,82.60
2022-08-12T22:47:07.474Z,82.70
2022-08-12T22:49:44.784Z,82.80
2022-08-12T22:52:18.520Z,82.80
2022-08-12T22:55:03.550Z,83.30
2022-08-12T22:57:49.038Z,84.00
2022-08-12T23:00:24.759Z,85.10
2022-08-12T23:03:00.608Z,85.80
2022-08-12T23:05:56.736Z,86.20
2022-08-12T23:08:29.882Z,86.20
2022-08-12T23:11:05.892Z,86.30
2022-08-12T23:13:48.536Z,86.50
2022-08-12T23:16:28.986Z,87.80
2022-08-12T23:19:10.392Z,87.30
2022-08-12T23:22:06.077Z,87.40
2022-08-12T23:24:56.093Z,88.00
2022-08-12T23:27:50.616Z,88.00
2022-08-12T23:30:32.472Z,88.00
2022-08-12T23:33:20.605Z,88.50
2022-08-12T23:36:03.054Z,88.70
2022-08-12T23:38:32.953Z,88.80
2022-08-12T23:41:02.623Z,89.50
2022-08-12T23:43:40.130Z,89.60
2022-08-12T23:46:18.526Z,89.90
2022-08-12T23:48:50.567Z,90.10
2022-08-12T23:51:25.899Z,90.20
2022-08-12T23:54:02.530Z,90.60
2022-08-12T23:56:34.279Z,90.60
2022-08-12T23:59:06.609Z,90.70
